createdAt,value
2022-11-12T00:00:34.425Z,13.50
2022-11-12T00:01:34.466Z,11.30
2022-11-12T00:02:34.406Z,11.50
2022-11-12T00:03:34.396Z,11.40
2022-11-12T00:04:34.377Z,10.90
2022-11-12T00:05:34.374Z,11.50
2022-11-12T00:06:34.387Z,10.40
2022-11-12T00:07:34.467Z,15.00
2022-11-12T00:08:34.345Z,12.00
2022-11-12T00:09:34.331Z,12.30
2022-11-12T00:10:34.315Z,14.00
2022-11-12T00:11:34.326Z,14.40
2022-11-12T00:12:34.295Z,11.90
2022-11-12T00:13:34.295Z,13.70
2022-11-12T00:14:34.285Z,11.70
2022-11-12T00:15:34.378Z,11.80
2022-11-12T00:16:34.245Z,12.90
2022-11-12T00:17:34.467Z,11.40
2022-11-12T00:18:34.237Z,12.30
2022-11-12T00:19:34.238Z,13.00
2022-11-12T00:20:34.222Z,12.10
2022-11-12T00:21:34.187Z,14.00
2022-11-12T00:22:34.182Z,15.10
2022-11-12T00:23:34.196Z,14.70
2022-11-12T00:24:34.176Z,12.80
2022-11-12T00:25:34.215Z,14.40
2022-11-12T00:26:34.139Z,11.70
2022-11-12T00:27:34.128Z,13.80
2022-11-12T00:28:37.987Z,12.80
2022-11-12T00:29:34.117Z,12.30
2022-11-12T00:30:34.099Z,11.90
2022-11-12T00:31:34.078Z,15.20
2022-11-12T00:32:34.098Z,16.10
2022-11-12T00:33:34.168Z,13.50
2022-11-12T00:34:34.056Z,13.60
2022-11-12T00:35:34.040Z,13.40
2022-11-12T00:36:34.018Z,12.60
2022-11-12T00:37:34.020Z,14.60
2022-11-12T00:38:34.016Z,14.60
2022-11-12T00:39:33.998Z,15.40
2022-11-12T00:40:33.989Z,13.20
2022-11-12T00:41:33.980Z,14.80
2022-11-12T00:42:33.970Z,14.20
2022-11-12T00:43:33.960Z,18.40
2022-11-12T00:44:33.929Z,17.40
2022-11-12T00:45:33.930Z,13.70
2022-11-12T00:46:33.940Z,16.70
2022-11-12T00:47:33.901Z,15.70
2022-11-12T00:48:33.900Z,18.60
2022-11-12T00:49:33.889Z,18.20
2022-11-12T00:50:33.871Z,14.00
2022-11-12T00:51:33.860Z,15.70
2022-11-12T00:52:33.871Z,16.00
2022-11-12T00:53:33.855Z,17.30
2022-11-12T00:54:33.831Z,14.90
2022-11-12T00:55:33.818Z,14.40
2022-11-12T00:56:35.642Z,18.40
2022-11-12T00:57:33.822Z,14.80
2022-11-12T00:58:33.790Z,15.60
2022-11-12T00:59:33.777Z,15.30
2022-11-12T01:00:33.753Z,15.10
2022-11-12T01:01:33.835Z,16.70
2022-11-12T01:02:40.733Z,16.50
2022-11-12T01:03:34.891Z,15.30
2022-11-12T01:04:33.721Z,15.90
2022-11-12T01:05:33.722Z,14.70
2022-11-12T01:06:33.780Z,13.50
2022-11-12T01:07:33.711Z,13.90
2022-11-12T01:08:33.727Z,16.80
2022-11-12T01:09:33.679Z,13.70
2022-11-12T01:10:33.662Z,15.70
2022-11-12T01:11:33.685Z,14.40
2022-11-12T01:12:33.646Z,17.00
2022-11-12T01:13:33.642Z,15.60
2022-11-12T01:14:33.603Z,16.10
2022-11-12T01:15:33.605Z,15.30
2022-11-12T01:16:33.595Z,17.40
2022-11-12T01:17:33.584Z,15.90
2022-11-12T01:18:33.553Z,15.70
2022-11-12T01:19:33.563Z,16.20
2022-11-12T01:20:33.543Z,17.70
2022-11-12T01:21:33.531Z,14.30
2022-11-12T01:22:33.555Z,14.60
2022-11-12T01:23:33.525Z,15.50
2022-11-12T01:24:33.523Z,13.00
2022-11-12T01:25:33.494Z,14.40
2022-11-12T01:26:33.496Z,14.60
2022-11-12T01:27:33.489Z,15.60
2022-11-12T01:28:33.458Z,12.50
2022-11-12T01:29:33.458Z,13.60
2022-11-12T01:30:33.435Z,13.60
2022-11-12T01:31:33.439Z,15.20
2022-11-12T01:32:33.416Z,14.00
2022-11-12T01:33:33.425Z,14.70
2022-11-12T01:34:33.397Z,18.40
2022-11-12T01:35:33.385Z,14.40
2022-11-12T01:36:33.366Z,13.70
2022-11-12T01:37:33.397Z,13.50
2022-11-12T01:38:33.347Z,15.00
2022-11-12T01:39:33.336Z,14.10
2022-11-12T01:40:33.365Z,14.30
2022-11-12T01:41:33.327Z,13.70
2022-11-12T01:42:33.315Z,13.70
2022-11-12T01:43:33.319Z,15.20
2022-11-12T01:44:33.294Z,14.60
2022-11-12T01:45:33.277Z,13.90
2022-11-12T01:46:33.276Z,12.30
2022-11-12T01:47:33.257Z,13.40
2022-11-12T01:48:33.238Z,14.30
2022-11-12T01:49:33.230Z,12.50
2022-11-12T01:50:33.228Z,17.00
2022-11-12T01:51:33.203Z,15.00
2022-11-12T01:52:33.200Z,15.00
2022-11-12T01:53:33.178Z,13.90
2022-11-12T01:54:33.179Z,12.70
2022-11-12T01:55:33.147Z,16.00
2022-11-12T01:56:33.149Z,13.70
2022-11-12T01:57:34.958Z,17.40
2022-11-12T01:58:33.117Z,13.70
2022-11-12T01:59:33.109Z,14.80
2022-11-12T02:00:33.097Z,14.20
2022-11-12T02:01:33.182Z,13.80
2022-11-12T02:02:33.114Z,14.10
2022-11-12T02:03:33.078Z,16.20
2022-11-12T02:04:33.059Z,14.20
2022-11-12T02:05:33.048Z,15.30
2022-11-12T02:06:33.057Z,20.10
2022-11-12T02:07:33.044Z,15.10
2022-11-12T02:08:33.022Z,15.10
2022-11-12T02:09:32.998Z,15.40
2022-11-12T02:10:32.999Z,14.80
2022-11-12T02:11:32.979Z,16.40
2022-11-12T02:12:32.977Z,16.10
2022-11-12T02:13:32.950Z,17.30
2022-11-12T02:14:32.960Z,17.30
2022-11-12T02:15:32.929Z,18.40
2022-11-12T02:16:32.919Z,16.80
2022-11-12T02:17:32.920Z,15.50
2022-11-12T02:18:32.909Z,17.90
2022-11-12T02:19:32.901Z,16.00
2022-11-12T02:20:32.890Z,16.30
2022-11-12T02:21:32.864Z,18.40
2022-11-12T02:22:32.875Z,17.30
2022-11-12T02:23:32.850Z,16.90
2022-11-12T02:24:32.842Z,15.00
2022-11-12T02:25:32.824Z,17.70
2022-11-12T02:26:32.903Z,16.60
2022-11-12T02:27:32.842Z,17.90
2022-11-12T02:28:32.791Z,18.50
2022-11-12T02:29:32.781Z,16.40
2022-11-12T02:30:32.792Z,18.20
2022-11-12T02:31:32.766Z,18.60
2022-11-12T02:32:32.772Z,19.40
2022-11-12T02:33:32.732Z,17.70
2022-11-12T02:34:32.733Z,19.50
2022-11-12T02:35:32.728Z,17.90
2022-11-12T02:36:32.701Z,20.10
2022-11-12T02:37:32.701Z,20.10
2022-11-12T02:38:32.696Z,17.80
2022-11-12T02:39:32.670Z,18.20
2022-11-12T02:40:32.661Z,19.90
2022-11-12T02:41:32.652Z,19.10
2022-11-12T02:42:32.646Z,19.20
2022-11-12T02:43:32.622Z,19.20
2022-11-12T02:44:32.631Z,19.80
2022-11-12T02:45:32.618Z,18.40
2022-11-12T02:46:32.607Z,19.00
2022-11-12T02:47:32.892Z,17.90
2022-11-12T02:48:32.574Z,17.80
2022-11-12T02:49:32.597Z,17.50
2022-11-12T02:50:32.574Z,19.10
2022-11-12T02:51:32.547Z,18.60
2022-11-12T02:52:40.254Z,18.50
2022-11-12T02:53:32.514Z,18.30
2022-11-12T02:54:32.505Z,18.60
2022-11-12T02:55:32.494Z,17.70
2022-11-12T02:56:32.483Z,18.90
2022-11-12T02:57:32.475Z,21.00
2022-11-12T02:58:32.453Z,16.70
2022-11-12T02:59:32.444Z,18.70
2022-11-12T03:00:32.424Z,22.10
2022-11-12T03:01:32.529Z,18.90
2022-11-12T03:02:32.426Z,18.70
2022-11-12T03:03:32.392Z,17.70
2022-11-12T03:04:32.385Z,18.00
2022-11-12T03:05:32.382Z,16.70
2022-11-12T03:06:32.373Z,16.70
2022-11-12T03:07:32.345Z,18.70
2022-11-12T03:08:32.344Z,17.70
2022-11-12T03:09:32.325Z,17.20
2022-11-12T03:10:32.336Z,18.90
2022-11-12T03:11:32.319Z,20.70
2022-11-12T03:12:32.295Z,19.70
2022-11-12T03:13:32.295Z,18.40
2022-11-12T03:14:32.294Z,18.70
2022-11-12T03:15:32.254Z,18.70
2022-11-12T03:16:32.266Z,17.40
2022-11-12T03:17:32.236Z,18.80
2022-11-12T03:18:32.234Z,18.40
2022-11-12T03:19:32.215Z,19.90
2022-11-12T03:20:32.216Z,20.20
2022-11-12T03:21:32.207Z,19.00
2022-11-12T03:22:32.186Z,18.10
2022-11-12T03:23:32.170Z,18.30
2022-11-12T03:24:32.216Z,17.60
2022-11-12T03:25:32.225Z,18.40
2022-11-12T03:26:35.802Z,19.30
2022-11-12T03:27:32.125Z,17.40
2022-11-12T03:28:32.131Z,18.00
2022-11-12T03:29:32.121Z,18.10
2022-11-12T03:30:32.120Z,20.10
2022-11-12T03:31:32.109Z,19.80
2022-11-12T03:32:32.088Z,19.20
2022-11-12T03:33:32.058Z,18.20
2022-11-12T03:34:32.057Z,18.30
2022-11-12T03:35:32.044Z,16.40
2022-11-12T03:36:32.037Z,18.30
2022-11-12T03:37:32.038Z,17.50
2022-11-12T03:38:32.018Z,18.20
2022-11-12T03:39:31.998Z,17.90
2022-11-12T03:40:32.000Z,20.30
2022-11-12T03:41:31.989Z,17.60
2022-11-12T03:42:31.961Z,16.80
2022-11-12T03:43:31.948Z,18.90
2022-11-12T03:44:31.943Z,18.50
2022-11-12T03:45:31.977Z,15.90
2022-11-12T03:46:31.928Z,18.30
2022-11-12T03:47:31.918Z,17.30
2022-11-12T03:48:31.900Z,16.70
2022-11-12T03:49:31.887Z,16.50
2022-11-12T03:50:31.871Z,14.90
2022-11-12T03:51:31.870Z,17.40
2022-11-12T03:52:31.851Z,16.80
2022-11-12T03:53:31.850Z,16.50
2022-11-12T03:54:31.838Z,16.10
2022-11-12T03:55:31.826Z,15.70
2022-11-12T03:56:31.836Z,17.10
2022-11-12T03:57:31.803Z,17.50
2022-11-12T03:58:31.925Z,15.60
2022-11-12T03:59:31.770Z,15.40
2022-11-12T04:00:31.766Z,19.00
2022-11-12T04:01:31.856Z,17.30
2022-11-12T04:02:31.755Z,16.50
2022-11-12T04:03:31.731Z,15.70
2022-11-12T04:04:31.729Z,16.60
2022-11-12T04:05:31.710Z,16.30
2022-11-12T04:06:31.720Z,17.00
2022-11-12T04:07:31.688Z,14.90
2022-11-12T04:08:31.681Z,16.10
2022-11-12T04:09:31.659Z,17.80
2022-11-12T04:10:31.660Z,17.00
2022-11-12T04:11:31.671Z,16.50
2022-11-12T04:12:31.636Z,17.20
2022-11-12T04:13:31.613Z,17.20
2022-11-12T04:14:31.613Z,16.00
2022-11-12T04:15:31.611Z,14.40
2022-11-12T04:16:31.623Z,18.20
2022-11-12T04:17:31.598Z,15.80
2022-11-12T04:18:31.584Z,15.90
2022-11-12T04:19:31.577Z,15.60
2022-11-12T04:20:31.562Z,16.70
2022-11-12T04:21:31.550Z,16.50
2022-11-12T04:22:31.543Z,16.90
2022-11-12T04:23:31.516Z,16.30
2022-11-12T04:24:31.504Z,16.00
2022-11-12T04:25:31.493Z,17.50
2022-11-12T04:26:31.496Z,15.60
2022-11-12T04:27:31.483Z,15.20
2022-11-12T04:28:31.466Z,16.40
2022-11-12T04:29:36.369Z,15.10
2022-11-12T04:30:32.434Z,16.00
2022-11-12T04:31:31.436Z,16.00
2022-11-12T04:32:31.436Z,14.30
2022-11-12T04:33:31.414Z,16.20
2022-11-12T04:34:31.458Z,15.40
2022-11-12T04:35:31.381Z,15.40
2022-11-12T04:36:31.374Z,14.50
2022-11-12T04:37:31.356Z,14.70
2022-11-12T04:38:31.365Z,16.90
2022-11-12T04:39:31.335Z,16.70
2022-11-12T04:40:31.332Z,17.90
2022-11-12T04:41:31.324Z,15.40
2022-11-12T04:42:31.296Z,16.60
2022-11-12T04:43:31.284Z,17.00
2022-11-12T04:44:31.286Z,17.50
2022-11-12T04:45:31.269Z,17.20
2022-11-12T04:46:31.264Z,15.20
2022-11-12T04:47:31.250Z,16.80
2022-11-12T04:48:31.236Z,16.40
2022-11-12T04:49:31.224Z,16.10
2022-11-12T04:50:31.219Z,17.30
2022-11-12T04:51:31.205Z,16.80
2022-11-12T04:52:31.206Z,15.70
2022-11-12T04:53:31.176Z,18.00
2022-11-12T04:54:31.169Z,17.90
2022-11-12T04:55:31.173Z,15.50
2022-11-12T04:56:31.182Z,15.40
2022-11-12T04:57:31.127Z,18.00
2022-11-12T04:58:31.138Z,16.20
2022-11-12T04:59:31.107Z,16.50
2022-11-12T05:00:31.135Z,17.30
2022-11-12T05:01:31.264Z,16.40
2022-11-12T05:02:31.080Z,17.20
2022-11-12T05:03:31.066Z,16.80
2022-11-12T05:04:31.076Z,17.80
2022-11-12T05:05:33.770Z,17.80
2022-11-12T05:06:31.054Z,16.90
2022-11-12T05:07:31.032Z,17.10
2022-11-12T05:08:31.019Z,16.10
2022-11-12T05:09:31.016Z,16.80
2022-11-12T05:10:31.008Z,17.80
2022-11-12T05:11:30.988Z,17.80
2022-11-12T05:12:30.978Z,16.20
2022-11-12T05:13:30.961Z,16.30
2022-11-12T05:14:30.949Z,17.70
2022-11-12T05:15:30.931Z,15.90
2022-11-12T05:16:30.959Z,17.60
2022-11-12T05:17:30.920Z,16.90
2022-11-12T05:18:30.899Z,15.50
2022-11-12T05:19:30.897Z,15.10
2022-11-12T05:20:30.887Z,16.40
2022-11-12T05:21:30.880Z,16.20
2022-11-12T05:22:43.394Z,16.80
2022-11-12T05:23:31.844Z,17.80
2022-11-12T05:24:41.403Z,17.40
2022-11-12T05:25:31.834Z,16.10
2022-11-12T05:26:30.831Z,16.20
2022-11-12T05:27:30.797Z,15.50
2022-11-12T05:28:30.790Z,16.40
2022-11-12T05:29:30.795Z,16.90
2022-11-12T05:30:30.828Z,16.60
2022-11-12T05:31:30.779Z,16.30
2022-11-12T05:32:30.760Z,17.00
2022-11-12T05:33:30.731Z,16.40
2022-11-12T05:34:30.733Z,16.20
2022-11-12T05:35:30.710Z,14.40
2022-11-12T05:36:30.709Z,16.20
2022-11-12T05:37:30.690Z,14.80
2022-11-12T05:38:30.861Z,15.20
2022-11-12T05:39:30.667Z,14.70
2022-11-12T05:40:30.880Z,14.50
2022-11-12T05:41:45.225Z,16.10
2022-11-12T05:42:31.632Z,14.10
2022-11-12T05:43:30.624Z,14.30
2022-11-12T05:44:30.624Z,14.10
2022-11-12T05:45:30.590Z,13.90
2022-11-12T05:46:30.612Z,13.10
2022-11-12T05:47:30.581Z,15.40
2022-11-12T05:48:31.429Z,14.70
2022-11-12T05:49:30.551Z,14.60
2022-11-12T05:50:39.835Z,15.90
2022-11-12T05:51:31.554Z,13.90
2022-11-12T05:52:30.559Z,13.70
2022-11-12T05:53:30.512Z,15.40
2022-11-12T05:54:30.500Z,12.90
2022-11-12T05:55:34.443Z,18.50
2022-11-12T05:56:31.501Z,14.50
2022-11-12T05:57:30.529Z,15.80
2022-11-12T05:58:30.473Z,15.20
2022-11-12T05:59:30.479Z,14.20
2022-11-12T06:00:30.423Z,13.50
2022-11-12T06:01:30.634Z,15.40
2022-11-12T06:02:30.487Z,13.70
2022-11-12T06:03:30.417Z,13.50
2022-11-12T06:04:30.401Z,16.50
2022-11-12T06:05:30.558Z,14.10
2022-11-12T06:06:30.381Z,14.70
2022-11-12T06:07:30.356Z,12.80
2022-11-12T06:08:30.342Z,13.40
2022-11-12T06:09:30.324Z,13.90
2022-11-12T06:10:30.323Z,13.30
2022-11-12T06:11:30.325Z,13.70
2022-11-12T06:12:30.302Z,13.50
2022-11-12T06:13:30.295Z,13.70
2022-11-12T06:14:30.294Z,14.60
2022-11-12T06:15:32.844Z,14.60
2022-11-12T06:16:31.288Z,13.30
2022-11-12T06:17:30.247Z,16.60
2022-11-12T06:18:30.233Z,14.40
2022-11-12T06:19:30.243Z,15.50
2022-11-12T06:20:30.220Z,16.00
2022-11-12T06:21:30.221Z,16.90
2022-11-12T06:22:30.198Z,18.10
2022-11-12T06:23:30.173Z,18.30
2022-11-12T06:24:35.140Z,14.00
2022-11-12T06:25:31.155Z,16.40
2022-11-12T06:26:30.175Z,14.60
2022-11-12T06:27:30.155Z,16.70
2022-11-12T06:28:30.382Z,15.70
2022-11-12T06:29:30.129Z,15.70
2022-11-12T06:30:30.103Z,14.70
2022-11-12T06:31:30.095Z,14.80
2022-11-12T06:32:30.084Z,14.80
2022-11-12T06:33:30.065Z,15.60
2022-11-12T06:34:30.072Z,15.50
2022-11-12T06:35:30.045Z,16.00
2022-11-12T06:36:30.043Z,15.60
2022-11-12T06:37:30.047Z,17.50
2022-11-12T06:38:30.087Z,16.90
2022-11-12T06:39:29.994Z,16.10
2022-11-12T06:40:30.012Z,15.90
2022-11-12T06:41:30.031Z,13.60
2022-11-12T06:42:29.974Z,15.70
2022-11-12T06:43:29.964Z,14.20
2022-11-12T06:44:29.957Z,14.40
2022-11-12T06:45:29.933Z,15.40
2022-11-12T06:46:29.946Z,16.00
2022-11-12T06:47:29.952Z,13.70
2022-11-12T06:48:29.908Z,14.20
2022-11-12T06:49:29.887Z,13.80
2022-11-12T06:50:29.882Z,12.50
2022-11-12T06:51:29.886Z,12.30
2022-11-12T06:52:29.860Z,12.40
2022-11-12T06:53:29.847Z,12.70
2022-11-12T06:54:29.842Z,14.30
2022-11-12T06:55:29.836Z,13.10
2022-11-12T06:56:29.968Z,12.30
2022-11-12T06:57:29.800Z,12.70
2022-11-12T06:58:29.787Z,11.30
2022-11-12T06:59:29.781Z,11.20
2022-11-12T07:00:29.767Z,11.80
2022-11-12T07:01:29.844Z,10.70
2022-11-12T07:02:29.749Z,13.30
2022-11-12T07:03:29.728Z,11.10
2022-11-12T07:04:29.731Z,12.20
2022-11-12T07:05:29.709Z,12.50
2022-11-12T07:06:29.708Z,11.80
2022-11-12T07:07:29.870Z,11.90
2022-11-12T07:08:29.960Z,11.60
2022-11-12T07:09:29.688Z,13.00
2022-11-12T07:10:29.716Z,13.30
2022-11-12T07:11:29.711Z,11.70
2022-11-12T07:12:29.630Z,12.20
2022-11-12T07:13:29.619Z,12.60
2022-11-12T07:14:29.642Z,13.30
2022-11-12T07:15:29.614Z,10.40
2022-11-12T07:16:29.610Z,11.50
2022-11-12T07:17:29.600Z,11.40
2022-11-12T07:18:29.808Z,11.60
2022-11-12T07:19:29.562Z,11.70
2022-11-12T07:20:29.594Z,12.70
2022-11-12T07:21:29.541Z,10.70
2022-11-12T07:22:29.535Z,12.30
2022-11-12T07:23:29.524Z,12.10
2022-11-12T07:24:29.500Z,11.20
2022-11-12T07:25:29.499Z,14.50
2022-11-12T07:26:29.501Z,11.80
2022-11-12T07:27:29.460Z,11.20
2022-11-12T07:28:29.785Z,11.80
2022-11-12T07:29:46.192Z,12.90
2022-11-12T07:30:30.438Z,12.50
2022-11-12T07:31:29.621Z,12.90
2022-11-12T07:32:29.425Z,13.60
2022-11-12T07:33:29.402Z,12.80
2022-11-12T07:34:29.403Z,12.20
2022-11-12T07:35:29.385Z,12.50
2022-11-12T07:36:29.381Z,12.50
2022-11-12T07:37:29.364Z,14.30
2022-11-12T07:38:29.584Z,16.10
2022-11-12T07:39:29.338Z,12.50
2022-11-12T07:40:29.343Z,13.20
2022-11-12T07:41:29.341Z,12.70
2022-11-12T07:42:29.295Z,12.40
2022-11-12T07:43:29.294Z,13.40
2022-11-12T07:44:29.288Z,12.70
2022-11-12T07:45:29.262Z,12.00
2022-11-12T07:46:29.286Z,12.50
2022-11-12T07:47:29.253Z,13.70
2022-11-12T07:48:29.498Z,13.40
2022-11-12T07:49:29.225Z,13.50
2022-11-12T07:50:29.213Z,12.60
2022-11-12T07:51:29.232Z,17.60
2022-11-12T07:52:29.245Z,12.70
2022-11-12T07:53:29.181Z,12.20
2022-11-12T07:54:29.169Z,13.90
2022-11-12T07:55:29.157Z,15.00
2022-11-12T07:56:29.166Z,14.20
2022-11-12T07:57:29.135Z,13.20
2022-11-12T07:58:29.404Z,14.10
2022-11-12T07:59:29.112Z,12.20
2022-11-12T08:00:29.096Z,10.80
2022-11-12T08:01:29.186Z,10.80
2022-11-12T08:02:29.091Z,12.30
2022-11-12T08:03:29.066Z,12.90
2022-11-12T08:04:29.065Z,12.60
2022-11-12T08:05:29.119Z,14.30
2022-11-12T08:06:29.054Z,12.20
2022-11-12T08:07:29.212Z,11.40
2022-11-12T08:08:29.464Z,10.60
2022-11-12T08:09:28.999Z,10.60
2022-11-12T08:10:29.005Z,11.30
2022-11-12T08:11:29.006Z,11.10
2022-11-12T08:12:28.978Z,11.20
2022-11-12T08:13:28.967Z,12.30
2022-11-12T08:14:28.965Z,11.20
2022-11-12T08:15:28.947Z,10.80
2022-11-12T08:16:28.937Z,10.70
2022-11-12T08:17:28.917Z,13.50
2022-11-12T08:18:29.315Z,11.20
2022-11-12T08:19:28.909Z,10.50
2022-11-12T08:20:28.887Z,11.70
2022-11-12T08:21:28.924Z,10.80
2022-11-12T08:22:28.869Z,10.00
2022-11-12T08:23:28.857Z,11.50
2022-11-12T08:24:28.867Z,11.50
2022-11-12T08:25:28.834Z,11.90
2022-11-12T08:26:28.839Z,13.20
2022-11-12T08:27:28.813Z,11.50
2022-11-12T08:28:29.110Z,13.00
2022-11-12T08:29:28.828Z,12.40
2022-11-12T08:30:28.782Z,11.00
2022-11-12T08:31:28.770Z,13.20
2022-11-12T08:32:28.758Z,11.00
2022-11-12T08:33:28.750Z,12.30
2022-11-12T08:34:28.732Z,10.50
2022-11-12T08:35:28.728Z,12.20
2022-11-12T08:36:28.711Z,10.60
2022-11-12T08:37:28.709Z,10.40
2022-11-12T08:38:28.980Z,11.20
2022-11-12T08:39:28.681Z,10.70
2022-11-12T08:40:28.681Z,12.40
2022-11-12T08:41:28.670Z,10.30
2022-11-12T08:42:28.642Z,11.20
2022-11-12T08:43:28.629Z,10.60
2022-11-12T08:44:28.630Z,12.50
2022-11-12T08:45:28.620Z,10.60
2022-11-12T08:46:28.611Z,11.80
2022-11-12T08:47:28.584Z,11.60
2022-11-12T08:48:28.836Z,10.20
2022-11-12T08:49:28.566Z,11.70
2022-11-12T08:50:28.572Z,12.00
2022-11-12T08:51:28.544Z,13.70
2022-11-12T08:52:28.551Z,11.10
2022-11-12T08:53:28.554Z,11.30
2022-11-12T08:54:28.593Z,11.00
2022-11-12T08:55:28.526Z,11.90
2022-11-12T08:56:28.506Z,11.00
2022-11-12T08:57:28.472Z,12.40
2022-11-12T08:58:28.935Z,11.80
2022-11-12T08:59:28.455Z,13.20
2022-11-12T09:00:28.462Z,11.20
2022-11-12T09:01:28.489Z,11.70
2022-11-12T09:02:28.444Z,13.30
2022-11-12T09:03:28.404Z,11.80
2022-11-12T09:04:28.415Z,13.80
2022-11-12T09:05:28.415Z,13.10
2022-11-12T09:06:28.384Z,11.20
2022-11-12T09:07:48.952Z,11.80
2022-11-12T09:08:29.592Z,12.20
2022-11-12T09:09:28.996Z,11.60
2022-11-12T09:10:28.354Z,11.50
2022-11-12T09:11:28.393Z,12.10
2022-11-12T09:12:28.429Z,11.50
2022-11-12T09:13:28.372Z,12.70
2022-11-12T09:14:28.307Z,13.00
2022-11-12T09:15:37.542Z,12.90
2022-11-12T09:16:29.276Z,12.80
2022-11-12T09:17:28.266Z,12.60
2022-11-12T09:18:28.516Z,12.60
2022-11-12T09:19:28.247Z,13.00
2022-11-12T09:20:28.258Z,11.80
2022-11-12T09:21:28.218Z,13.10
2022-11-12T09:22:28.227Z,11.00
2022-11-12T09:23:28.442Z,12.40
2022-11-12T09:24:28.285Z,11.00
2022-11-12T09:25:28.235Z,12.90
2022-11-12T09:26:28.182Z,11.90
2022-11-12T09:27:28.191Z,11.10
2022-11-12T09:28:28.457Z,10.80
2022-11-12T09:29:28.440Z,14.00
2022-11-12T09:30:28.135Z,12.30
2022-11-12T09:31:28.368Z,10.50
2022-11-12T09:32:28.284Z,10.00
2022-11-12T09:33:28.180Z,9.70
2022-11-12T09:34:28.080Z,9.70
2022-11-12T09:35:28.091Z,10.60
2022-11-12T09:36:28.048Z,8.60
2022-11-12T09:37:28.064Z,8.20
2022-11-12T09:38:28.587Z,9.00
2022-11-12T09:39:28.085Z,8.70
2022-11-12T09:40:28.021Z,8.00
2022-11-12T09:41:28.118Z,8.90
2022-11-12T09:42:27.979Z,8.20
2022-11-12T09:43:27.984Z,7.70
2022-11-12T09:44:31.692Z,8.10
2022-11-12T09:45:28.951Z,7.60
2022-11-12T09:46:28.701Z,8.60
2022-11-12T09:47:27.946Z,10.80
2022-11-12T09:48:28.226Z,8.60
2022-11-12T09:49:28.872Z,8.00
2022-11-12T09:50:27.907Z,8.90
2022-11-12T09:51:27.892Z,7.90
2022-11-12T09:52:27.923Z,8.10
2022-11-12T09:53:27.874Z,8.60
2022-11-12T09:54:27.842Z,11.50
2022-11-12T09:55:27.854Z,8.40
2022-11-12T09:56:27.829Z,8.70
2022-11-12T09:57:28.025Z,8.80
2022-11-12T09:58:28.092Z,7.60
2022-11-12T09:59:27.803Z,7.80
2022-11-12T10:00:27.794Z,9.20
2022-11-12T10:01:27.813Z,10.30
2022-11-12T10:02:27.765Z,9.40
2022-11-12T10:03:27.774Z,8.00
2022-11-12T10:04:27.737Z,8.70
2022-11-12T10:05:27.906Z,7.50
2022-11-12T10:06:27.727Z,8.10
2022-11-12T10:07:27.755Z,9.50
2022-11-12T10:08:27.961Z,7.90
2022-11-12T10:09:27.715Z,9.00
2022-11-12T10:10:27.696Z,9.10
2022-11-12T10:11:27.701Z,8.50
2022-11-12T10:12:27.656Z,8.80
2022-11-12T10:13:28.607Z,8.90
2022-11-12T10:14:27.629Z,8.70
2022-11-12T10:15:28.327Z,10.30
2022-11-12T10:16:27.619Z,9.80
2022-11-12T10:17:27.610Z,8.20
2022-11-12T10:18:28.027Z,9.00
2022-11-12T10:19:27.589Z,10.10
2022-11-12T10:20:27.589Z,9.10
2022-11-12T10:21:27.561Z,7.80
2022-11-12T10:22:27.611Z,9.50
2022-11-12T10:23:27.524Z,7.80
2022-11-12T10:24:27.530Z,8.10
2022-11-12T10:25:27.514Z,8.30
2022-11-12T10:26:27.503Z,8.90
2022-11-12T10:27:27.480Z,8.20
2022-11-12T10:28:27.997Z,7.70
2022-11-12T10:29:27.482Z,7.50
2022-11-12T10:30:27.461Z,7.70
2022-11-12T10:31:27.451Z,7.70
2022-11-12T10:32:27.468Z,8.10
2022-11-12T10:33:27.413Z,8.60
2022-11-12T10:34:27.416Z,7.50
2022-11-12T10:35:27.415Z,9.10
2022-11-12T10:36:27.404Z,7.80
2022-11-12T10:37:27.415Z,8.20
2022-11-12T10:38:27.803Z,7.50
2022-11-12T10:39:27.366Z,10.50
2022-11-12T10:40:27.375Z,9.40
2022-11-12T10:41:27.354Z,7.50
2022-11-12T10:42:27.346Z,9.30
2022-11-12T10:43:27.328Z,8.50
2022-11-12T10:44:27.308Z,7.40
2022-11-12T10:45:27.415Z,7.90
2022-11-12T10:46:27.278Z,8.20
2022-11-12T10:47:27.997Z,8.30
2022-11-12T10:48:27.855Z,8.30
2022-11-12T10:49:27.290Z,7.70
2022-11-12T10:50:27.260Z,7.70
2022-11-12T10:51:27.218Z,7.70
2022-11-12T10:52:27.221Z,7.30
2022-11-12T10:53:27.191Z,7.90
2022-11-12T10:54:27.191Z,11.10
2022-11-12T10:55:27.200Z,7.40
2022-11-12T10:56:27.177Z,7.00
2022-11-12T10:57:27.152Z,8.50
2022-11-12T10:58:27.444Z,7.60
2022-11-12T10:59:27.134Z,7.40
2022-11-12T11:00:27.125Z,6.60
2022-11-12T11:01:28.902Z,7.10
2022-11-12T11:02:28.187Z,6.70
2022-11-12T11:03:27.086Z,6.80
2022-11-12T11:04:27.106Z,7.90
2022-11-12T11:05:27.086Z,7.40
2022-11-12T11:06:27.066Z,9.10
2022-11-12T11:07:27.048Z,7.50
2022-11-12T11:08:30.387Z,6.40
2022-11-12T11:09:28.031Z,8.60
2022-11-12T11:10:27.049Z,6.50
2022-11-12T11:11:27.019Z,6.90
2022-11-12T11:12:27.001Z,6.40
2022-11-12T11:13:26.972Z,6.10
2022-11-12T11:14:26.988Z,8.30
2022-11-12T11:15:26.961Z,7.80
2022-11-12T11:16:26.981Z,6.80
2022-11-12T11:17:26.930Z,6.60
2022-11-12T11:18:27.172Z,6.70
2022-11-12T11:19:26.909Z,6.30
2022-11-12T11:20:26.911Z,7.70
2022-11-12T11:21:26.903Z,6.20
2022-11-12T11:22:26.893Z,5.70
2022-11-12T11:23:26.874Z,6.50
2022-11-12T11:24:26.924Z,7.30
2022-11-12T11:25:26.853Z,5.90
2022-11-12T11:26:26.841Z,6.50
2022-11-12T11:27:26.826Z,6.00
2022-11-12T11:28:27.159Z,7.10
2022-11-12T11:29:26.807Z,5.60
2022-11-12T11:30:26.806Z,5.50
2022-11-12T11:31:26.806Z,5.80
2022-11-12T11:32:26.767Z,6.50
2022-11-12T11:33:26.766Z,5.80
2022-11-12T11:34:26.765Z,7.50
2022-11-12T11:35:26.744Z,6.40
2022-11-12T11:36:26.726Z,6.30
2022-11-12T11:37:26.733Z,6.70
2022-11-12T11:38:27.023Z,5.90
2022-11-12T11:39:26.689Z,5.10
2022-11-12T11:40:26.702Z,5.80
2022-11-12T11:41:26.683Z,6.60
2022-11-12T11:42:26.673Z,5.30
2022-11-12T11:43:26.645Z,5.70
2022-11-12T11:44:26.753Z,5.80
2022-11-12T11:45:26.629Z,7.20
2022-11-12T11:46:26.622Z,7.40
2022-11-12T11:47:34.286Z,7.50
2022-11-12T11:48:27.815Z,6.10
2022-11-12T11:49:26.596Z,7.20
2022-11-12T11:50:26.583Z,5.60
2022-11-12T11:51:26.572Z,6.50
2022-11-12T11:52:26.553Z,6.40
2022-11-12T11:53:26.545Z,5.30
2022-11-12T11:54:26.525Z,7.30
2022-11-12T11:55:26.543Z,6.50
2022-11-12T11:56:26.507Z,5.10
2022-11-12T11:57:26.506Z,6.70
2022-11-12T11:58:26.942Z,5.90
2022-11-12T11:59:26.478Z,5.90
2022-11-12T12:00:26.468Z,6.20
2022-11-12T12:01:26.457Z,6.20
2022-11-12T12:02:26.447Z,6.10
2022-11-12T12:03:31.740Z,5.90
2022-11-12T12:04:27.417Z,6.10
2022-11-12T12:05:26.432Z,6.20
2022-11-12T12:06:26.390Z,4.90
2022-11-12T12:07:26.400Z,6.30
2022-11-12T12:08:26.788Z,7.10
2022-11-12T12:09:26.392Z,6.90
2022-11-12T12:10:40.231Z,7.60
2022-11-12T12:11:27.371Z,5.10
2022-11-12T12:12:26.333Z,6.20
2022-11-12T12:13:26.334Z,5.70
2022-11-12T12:14:26.315Z,5.80
2022-11-12T12:15:26.313Z,6.00
2022-11-12T12:16:26.306Z,6.10
2022-11-12T12:17:31.598Z,7.30
2022-11-12T12:18:27.671Z,5.70
2022-11-12T12:19:26.256Z,5.60
2022-11-12T12:20:26.255Z,6.40
2022-11-12T12:21:26.238Z,5.70
2022-11-12T12:22:26.239Z,6.90
2022-11-12T12:23:26.249Z,5.90
2022-11-12T12:24:26.198Z,5.70
2022-11-12T12:25:26.219Z,5.60
2022-11-12T12:26:26.179Z,6.00
2022-11-12T12:27:26.171Z,5.50
2022-11-12T12:28:26.482Z,6.80
2022-11-12T12:29:26.157Z,7.70
2022-11-12T12:30:26.141Z,5.70
2022-11-12T12:31:26.151Z,6.60
2022-11-12T12:32:26.114Z,6.30
2022-11-12T12:33:26.113Z,8.10
2022-11-12T12:34:26.091Z,5.40
2022-11-12T12:35:26.093Z,5.90
2022-11-12T12:36:26.066Z,5.30
2022-11-12T12:37:26.064Z,6.40
2022-11-12T12:38:26.397Z,6.50
2022-11-12T12:39:26.044Z,5.30
2022-11-12T12:40:26.035Z,8.60
2022-11-12T12:41:26.025Z,7.20
2022-11-12T12:42:26.004Z,6.10
2022-11-12T12:43:26.008Z,6.30
2022-11-12T12:44:25.996Z,8.40
2022-11-12T12:45:26.035Z,7.60
2022-11-12T12:46:25.967Z,4.80
2022-11-12T12:47:25.959Z,6.20
2022-11-12T12:48:26.204Z,5.60
2022-11-12T12:49:25.961Z,5.30
2022-11-12T12:50:25.929Z,5.60
2022-11-12T12:51:25.909Z,6.00
2022-11-12T12:52:25.907Z,6.50
2022-11-12T12:53:25.903Z,6.50
2022-11-12T12:54:25.882Z,5.80
2022-11-12T12:55:25.882Z,5.20
2022-11-12T12:56:25.864Z,7.70
2022-11-12T12:57:25.843Z,5.60
2022-11-12T12:58:26.155Z,8.40
2022-11-12T12:59:25.824Z,5.70